sensor_id;sensor_type;location;lat;lon;timestamp;temperature;humidity
24802;DHT22;12898;50.520;12.152;2022-11-20T00:01:25;-8.60;99.90
24802;DHT22;12898;50.520;12.152;2022-11-20T00:03:52;-8.50;99.90
24802;DHT22;12898;50.520;12.152;2022-11-20T00:06:19;-8.50;99.90
24802;DHT22;12898;50.520;12.152;2022-11-20T00:08:46;-8.50;99.90
24802;DHT22;12898;50.520;12.152;2022-11-20T00:11:15;-8.40;99.90
24802;DHT22;12898;50.520;12.152;2022-11-20T00:13:47;-8.30;99.90
24802;DHT22;12898;50.520;12.152;2022-11-20T00:16:17;-8.20;99.90
24802;DHT22;12898;50.520;12.152;2022-11-20T00:18:44;-8.10;99.90
24802;DHT22;12898;50.520;12.152;2022-11-20T00:21:22;-8.00;99.90
24802;DHT22;12898;50.520;12.152;2022-11-20T00:23:50;-7.90;99.90
24802;DHT22;12898;50.520;12.152;2022-11-20T00:26:18;-7.80;99.90
24802;DHT22;12898;50.520;12.152;2022-11-20T00:28:53;-7.70;99.90
24802;DHT22;12898;50.520;12.152;2022-11-20T00:31:20;-7.60;99.90
24802;DHT22;12898;50.520;12.152;2022-11-20T00:33:47;-7.50;99.90
24802;DHT22;12898;50.520;12.152;2022-11-20T00:36:21;-7.50;99.90
24802;DHT22;12898;50.520;12.152;2022-11-20T00:38:52;-7.40;99.90
24802;DHT22;12898;50.520;12.152;2022-11-20T00:41:21;-7.40;99.90
24802;DHT22;12898;50.520;12.152;2022-11-20T00:43:48;-7.40;99.90
24802;DHT22;12898;50.520;12.152;2022-11-20T00:46:16;-7.40;99.90
24802;DHT22;12898;50.520;12.152;2022-11-20T00:48:44;-7.40;99.90
24802;DHT22;12898;50.520;12.152;2022-11-20T00:51:12;-7.40;99.90
24802;DHT22;12898;50.520;12.152;2022-11-20T00:53:42;-7.50;99.90
24802;DHT22;12898;50.520;12.152;2022-11-20T00:56:11;-7.50;99.90
24802;DHT22;12898;50.520;12.152;2022-11-20T00:58:40;-7.50;99.90
24802;DHT22;12898;50.520;12.152;2022-11-20T01:01:09;-7.60;99.90
24802;DHT22;12898;50.520;12.152;2022-11-20T01:03:43;-7.60;99.90
24802;DHT22;12898;50.520;12.152;2022-11-20T01:06:31;-7.70;99.90
24802;DHT22;12898;50.520;12.152;2022-11-20T01:09:00;-7.80;99.90
24802;DHT22;12898;50.520;12.152;2022-11-20T01:11:39;-7.80;99.90
24802;DHT22;12898;50.520;12.152;2022-11-20T01:14:11;-7.90;99.90
24802;DHT22;12898;50.520;12.152;2022-11-20T01:16:48;-7.90;99.90
24802;DHT22;12898;50.520;12.152;2022-11-20T01:19:17;-8.00;99.90
24802;DHT22;12898;50.520;12.152;2022-11-20T01:21:48;-8.00;99.90
24802;DHT22;12898;50.520;12.152;2022-11-20T01:24:16;-8.00;99.90
24802;DHT22;12898;50.520;12.152;2022-11-20T01:26:44;-8.00;99.90
24802;DHT22;12898;50.520;12.152;2022-11-20T01:29:14;-8.00;99.90
24802;DHT22;12898;50.520;12.152;2022-11-20T01:31:41;-8.10;99.90
24802;DHT22;12898;50.520;12.152;2022-11-20T01:34:11;-8.10;99.90
24802;DHT22;12898;50.520;12.152;2022-11-20T01:36:41;-8.10;99.90
24802;DHT22;12898;50.520;12.152;2022-11-20T01:39:11;-8.00;99.90
24802;DHT22;12898;50.520;12.152;2022-11-20T01:41:39;-8.00;99.90
24802;DHT22;12898;50.520;12.152;2022-11-20T01:47:50;-8.00;99.90
24802;DHT22;12898;50.520;12.152;2022-11-20T01:50:25;-8.00;99.90
24802;DHT22;12898;50.520;12.152;2022-11-20T01:52:56;-8.00;99.90
24802;DHT22;12898;50.520;12.152;2022-11-20T01:55:37;-8.00;99.90
24802;DHT22;12898;50.520;12.152;2022-11-20T01:58:05;-7.90;99.90
24802;DHT22;12898;50.520;12.152;2022-11-20T02:00:32;-7.80;99.90
24802;DHT22;12898;50.520;12.152;2022-11-20T02:03:00;-7.70;99.90
24802;DHT22;12898;50.520;12.152;2022-11-20T02:05:34;-7.60;99.90
24802;DHT22;12898;50.520;12.152;2022-11-20T02:08:03;-7.50;99.90
24802;DHT22;12898;50.520;12.152;2022-11-20T02:10:30;-7.30;99.90
24802;DHT22;12898;50.520;12.152;2022-11-20T02:12:57;-7.20;99.90
24802;DHT22;12898;50.520;12.152;2022-11-20T02:15:42;-7.00;99.90
24802;DHT22;12898;50.520;12.152;2022-11-20T02:18:10;-6.70;99.90
24802;DHT22;12898;50.520;12.152;2022-11-20T02:20:36;-6.40;99.90
24802;DHT22;12898;50.520;12.152;2022-11-20T02:23:09;-6.20;99.90
24802;DHT22;12898;50.520;12.152;2022-11-20T02:25:57;-5.80;99.90
24802;DHT22;12898;50.520;12.152;2022-11-20T02:28:23;-5.50;99.90
24802;DHT22;12898;50.520;12.152;2022-11-20T02:30:48;-5.30;99.90
24802;DHT22;12898;50.520;12.152;2022-11-20T02:33:14;-5.20;99.90
24802;DHT22;12898;50.520;12.152;2022-11-20T02:35:43;-5.10;99.90
24802;DHT22;12898;50.520;12.152;2022-11-20T02:38:10;-5.00;99.90
24802;DHT22;12898;50.520;12.152;2022-11-20T02:40:36;-5.00;99.90
24802;DHT22;12898;50.520;12.152;2022-11-20T02:43:02;-4.80;99.90
24802;DHT22;12898;50.520;12.152;2022-11-20T02:45:27;-4.70;99.90
24802;DHT22;12898;50.520;12.152;2022-11-20T02:47:53;-4.70;99.90
24802;DHT22;12898;50.520;12.152;2022-11-20T02:50:19;-4.60;99.90
24802;DHT22;12898;50.520;12.152;2022-11-20T02:52:45;-4.50;99.90
24802;DHT22;12898;50.520;12.152;2022-11-20T02:55:11;-4.40;99.90
24802;DHT22;12898;50.520;12.152;2022-11-20T02:57:37;-4.40;99.90
24802;DHT22;12898;50.520;12.152;2022-11-20T03:00:04;-4.40;99.90
24802;DHT22;12898;50.520;12.152;2022-11-20T03:02:32;-4.30;99.90
24802;DHT22;12898;50.520;12.152;2022-11-20T03:04:58;-4.30;99.90
24802;DHT22;12898;50.520;12.152;2022-11-20T03:07:25;-4.20;99.90
24802;DHT22;12898;50.520;12.152;2022-11-20T03:09:50;-4.20;99.90
24802;DHT22;12898;50.520;12.152;2022-11-20T03:12:16;-4.10;99.90
24802;DHT22;12898;50.520;12.152;2022-11-20T03:14:42;-4.10;99.90
24802;DHT22;12898;50.520;12.152;2022-11-20T03:17:07;-4.00;99.90
24802;DHT22;12898;50.520;12.152;2022-11-20T03:19:33;-3.90;99.90
24802;DHT22;12898;50.520;12.152;2022-11-20T03:21:59;-3.90;99.90
24802;DHT22;12898;50.520;12.152;2022-11-20T03:24:25;-3.80;99.90
24802;DHT22;12898;50.520;12.152;2022-11-20T03:26:51;-3.70;99.90
24802;DHT22;12898;50.520;12.152;2022-11-20T03:29:17;-3.70;99.90
24802;DHT22;12898;50.520;12.152;2022-11-20T03:31:42;-3.60;99.90
24802;DHT22;12898;50.520;12.152;2022-11-20T03:34:10;-3.60;99.90
24802;DHT22;12898;50.520;12.152;2022-11-20T03:36:40;-3.50;99.90
24802;DHT22;12898;50.520;12.152;2022-11-20T03:39:08;-3.50;99.90
24802;DHT22;12898;50.520;12.152;2022-11-20T03:41:41;-3.40;99.90
24802;DHT22;12898;50.520;12.152;2022-11-20T03:44:09;-3.40;99.90
24802;DHT22;12898;50.520;12.152;2022-11-20T03:46:35;-3.40;99.90
24802;DHT22;12898;50.520;12.152;2022-11-20T03:49:02;-3.40;99.90
24802;DHT22;12898;50.520;12.152;2022-11-20T03:51:33;-3.40;99.90
24802;DHT22;12898;50.520;12.152;2022-11-20T03:54:02;-3.40;99.90
24802;DHT22;12898;50.520;12.152;2022-11-20T03:56:33;-3.30;99.90
24802;DHT22;12898;50.520;12.152;2022-11-20T03:59:00;-3.30;99.90
24802;DHT22;12898;50.520;12.152;2022-11-20T04:01:30;-3.30;99.90
24802;DHT22;12898;50.520;12.152;2022-11-20T04:03:57;-3.30;99.90
24802;DHT22;12898;50.520;12.152;2022-11-20T04:06:26;-3.30;99.90
24802;DHT22;12898;50.520;12.152;2022-11-20T04:08:56;-3.30;99.90
24802;DHT22;12898;50.520;12.152;2022-11-20T04:11:27;-3.30;99.90
24802;DHT22;12898;50.520;12.152;2022-11-20T04:13:56;-3.30;99.90
24802;DHT22;12898;50.520;12.152;2022-11-20T04:16:24;-3.30;99.90
24802;DHT22;12898;50.520;12.152;2022-11-20T04:18:57;-3.20;99.90
24802;DHT22;12898;50.520;12.152;2022-11-20T04:21:25;-3.10;99.90
24802;DHT22;12898;50.520;12.152;2022-11-20T04:23:51;-3.10;99.90
24802;DHT22;12898;50.520;12.152;2022-11-20T04:26:22;-3.00;99.90
24802;DHT22;12898;50.520;12.152;2022-11-20T04:28:49;-3.00;99.90
24802;DHT22;12898;50.520;12.152;2022-11-20T04:31:17;-2.90;99.90
24802;DHT22;12898;50.520;12.152;2022-11-20T04:33:44;-2.90;99.90
24802;DHT22;12898;50.520;12.152;2022-11-20T04:36:18;-2.90;99.90
24802;DHT22;12898;50.520;12.152;2022-11-20T04:38:46;-2.90;99.90
24802;DHT22;12898;50.520;12.152;2022-11-20T04:41:19;-2.80;99.90
24802;DHT22;12898;50.520;12.152;2022-11-20T04:43:50;-2.80;99.90
24802;DHT22;12898;50.520;12.152;2022-11-20T04:46:17;-2.80;99.90
24802;DHT22;12898;50.520;12.152;2022-11-20T04:48:44;-2.80;99.90
24802;DHT22;12898;50.520;12.152;2022-11-20T04:51:09;-2.80;99.90
24802;DHT22;12898;50.520;12.152;2022-11-20T04:53:35;-2.80;99.90
24802;DHT22;12898;50.520;12.152;2022-11-20T04:56:07;-2.80;99.90
24802;DHT22;12898;50.520;12.152;2022-11-20T04:58:34;-2.70;99.90
24802;DHT22;12898;50.520;12.152;2022-11-20T05:01:01;-2.70;99.90
24802;DHT22;12898;50.520;12.152;2022-11-20T05:03:31;-2.70;99.90
24802;DHT22;12898;50.520;12.152;2022-11-20T05:06:05;-2.70;99.90
24802;DHT22;12898;50.520;12.152;2022-11-20T05:08:32;-2.70;99.90
24802;DHT22;12898;50.520;12.152;2022-11-20T05:13:31;-2.60;99.90
24802;DHT22;12898;50.520;12.152;2022-11-20T05:16:13;-2.60;99.90
24802;DHT22;12898;50.520;12.152;2022-11-20T05:18:43;-2.50;99.90
24802;DHT22;12898;50.520;12.152;2022-11-20T05:21:10;-2.50;99.90
24802;DHT22;12898;50.520;12.152;2022-11-20T05:23:37;-2.50;99.90
24802;DHT22;12898;50.520;12.152;2022-11-20T05:26:04;-2.40;99.90
24802;DHT22;12898;50.520;12.152;2022-11-20T05:28:30;-2.40;99.90
24802;DHT22;12898;50.520;12.152;2022-11-20T05:31:05;-2.40;99.90
24802;DHT22;12898;50.520;12.152;2022-11-20T05:33:32;-2.30;99.90
24802;DHT22;12898;50.520;12.152;2022-11-20T05:35:59;-2.30;99.90
24802;DHT22;12898;50.520;12.152;2022-11-20T05:38:25;-2.30;99.90
24802;DHT22;12898;50.520;12.152;2022-11-20T05:40:50;-2.30;99.90
24802;DHT22;12898;50.520;12.152;2022-11-20T05:43:16;-2.30;99.90
24802;DHT22;12898;50.520;12.152;2022-11-20T05:45:41;-2.20;99.90
24802;DHT22;12898;50.520;12.152;2022-11-20T05:48:07;-2.20;99.90
24802;DHT22;12898;50.520;12.152;2022-11-20T05:50:33;-2.20;99.90
24802;DHT22;12898;50.520;12.152;2022-11-20T05:52:59;-2.10;99.90
24802;DHT22;12898;50.520;12.152;2022-11-20T05:55:26;-2.10;99.90
24802;DHT22;12898;50.520;12.152;2022-11-20T05:57:53;-2.10;99.90
24802;DHT22;12898;50.520;12.152;2022-11-20T06:00:20;-2.10;99.90
24802;DHT22;12898;50.520;12.152;2022-11-20T06:02:46;-2.00;99.90
24802;DHT22;12898;50.520;12.152;2022-11-20T06:05:11;-2.00;99.90
24802;DHT22;12898;50.520;12.152;2022-11-20T06:07:37;-2.00;99.90
24802;DHT22;12898;50.520;12.152;2022-11-20T06:10:03;-1.90;99.90
24802;DHT22;12898;50.520;12.152;2022-11-20T06:12:31;-1.90;99.90
24802;DHT22;12898;50.520;12.152;2022-11-20T06:14:58;-1.90;99.90
24802;DHT22;12898;50.520;12.152;2022-11-20T06:17:24;-1.90;99.90
24802;DHT22;12898;50.520;12.152;2022-11-20T06:19:50;-1.90;99.90
24802;DHT22;12898;50.520;12.152;2022-11-20T06:22:15;-1.90;99.90
24802;DHT22;12898;50.520;12.152;2022-11-20T06:24:41;-1.90;99.90
24802;DHT22;12898;50.520;12.152;2022-11-20T06:27:06;-1.80;99.90
24802;DHT22;12898;50.520;12.152;2022-11-20T06:29:32;-1.80;99.90
24802;DHT22;12898;50.520;12.152;2022-11-20T06:31:58;-1.80;99.90
24802;DHT22;12898;50.520;12.152;2022-11-20T06:34:23;-1.80;99.90
24802;DHT22;12898;50.520;12.152;2022-11-20T06:36:49;-1.80;99.90
24802;DHT22;12898;50.520;12.152;2022-11-20T06:39:15;-1.70;99.90
24802;DHT22;12898;50.520;12.152;2022-11-20T06:41:40;-1.70;99.90
24802;DHT22;12898;50.520;12.152;2022-11-20T06:44:06;-1.70;99.90
24802;DHT22;12898;50.520;12.152;2022-11-20T06:46:32;-1.70;99.90
24802;DHT22;12898;50.520;12.152;2022-11-20T06:48:57;-1.70;99.90
24802;DHT22;12898;50.520;12.152;2022-11-20T06:51:23;-1.60;99.90
24802;DHT22;12898;50.520;12.152;2022-11-20T06:53:49;-1.60;99.90
24802;DHT22;12898;50.520;12.152;2022-11-20T06:56:15;-1.60;99.90
24802;DHT22;12898;50.520;12.152;2022-11-20T06:58:41;-1.60;99.90
24802;DHT22;12898;50.520;12.152;2022-11-20T07:01:09;-1.60;99.90
24802;DHT22;12898;50.520;12.152;2022-11-20T07:03:36;-1.50;99.90
24802;DHT22;12898;50.520;12.152;2022-11-20T07:06:03;-1.50;99.90
24802;DHT22;12898;50.520;12.152;2022-11-20T07:08:29;-1.50;99.90
24802;DHT22;12898;50.520;12.152;2022-11-20T07:11:05;-1.50;99.90
24802;DHT22;12898;50.520;12.152;2022-11-20T07:13:32;-1.50;99.90
24802;DHT22;12898;50.520;12.152;2022-11-20T07:16:06;-1.50;99.90
24802;DHT22;12898;50.520;12.152;2022-11-20T07:18:33;-1.50;99.90
24802;DHT22;12898;50.520;12.152;2022-11-20T07:21:07;-1.50;99.90
24802;DHT22;12898;50.520;12.152;2022-11-20T07:23:34;-1.40;99.90
24802;DHT22;12898;50.520;12.152;2022-11-20T07:26:08;-1.40;99.90
24802;DHT22;12898;50.520;12.152;2022-11-20T07:28:35;-1.40;99.90
24802;DHT22;12898;50.520;12.152;2022-11-20T07:31:01;-1.30;99.90
24802;DHT22;12898;50.520;12.152;2022-11-20T07:33:27;-1.30;99.90
24802;DHT22;12898;50.520;12.152;2022-11-20T07:35:52;-1.30;99.90
24802;DHT22;12898;50.520;12.152;2022-11-20T07:38:18;-1.30;99.90
24802;DHT22;12898;50.520;12.152;2022-11-20T07:40:44;-1.30;99.90
24802;DHT22;12898;50.520;12.152;2022-11-20T07:43:09;-1.20;99.90
24802;DHT22;12898;50.520;12.152;2022-11-20T07:45:35;-1.20;99.90
24802;DHT22;12898;50.520;12.152;2022-11-20T07:48:01;-1.10;99.90
24802;DHT22;12898;50.520;12.152;2022-11-20T07:50:27;-1.10;99.90
24802;DHT22;12898;50.520;12.152;2022-11-20T07:53:00;-1.10;99.90
24802;DHT22;12898;50.520;12.152;2022-11-20T07:55:27;-1.00;99.90
24802;DHT22;12898;50.520;12.152;2022-11-20T07:57:56;-1.00;99.90
24802;DHT22;12898;50.520;12.152;2022-11-20T08:00:22;-1.00;99.90
24802;DHT22;12898;50.520;12.152;2022-11-20T08:02:48;-1.00;99.90
24802;DHT22;12898;50.520;12.152;2022-11-20T08:05:14;-0.90;99.90
24802;DHT22;12898;50.520;12.152;2022-11-20T08:07:41;-0.80;99.90
24802;DHT22;12898;50.520;12.152;2022-11-20T08:10:10;-0.70;99.90
24802;DHT22;12898;50.520;12.152;2022-11-20T08:12:43;-0.70;99.90
24802;DHT22;12898;50.520;12.152;2022-11-20T08:15:49;-0.70;99.90
24802;DHT22;12898;50.520;12.152;2022-11-20T08:18:16;-0.60;99.90
24802;DHT22;12898;50.520;12.152;2022-11-20T08:20:43;-0.60;99.90
24802;DHT22;12898;50.520;12.152;2022-11-20T08:23:09;-0.50;99.90
24802;DHT22;12898;50.520;12.152;2022-11-20T08:25:36;-0.40;99.90
24802;DHT22;12898;50.520;12.152;2022-11-20T08:28:05;-0.40;99.90
24802;DHT22;12898;50.520;12.152;2022-11-20T08:30:33;-0.30;99.90
24802;DHT22;12898;50.520;12.152;2022-11-20T08:33:07;-0.20;99.90
24802;DHT22;12898;50.520;12.152;2022-11-20T08:35:37;-0.20;99.90
24802;DHT22;12898;50.520;12.152;2022-11-20T08:38:05;-0.10;99.90
24802;DHT22;12898;50.520;12.152;2022-11-20T08:40:31;-0.10;99.90
24802;DHT22;12898;50.520;12.152;2022-11-20T08:42:57;-0.10;99.90
24802;DHT22;12898;50.520;12.152;2022-11-20T08:45:23;-0.10;99.90
24802;DHT22;12898;50.520;12.152;2022-11-20T08:47:49;-0.10;99.90
24802;DHT22;12898;50.520;12.152;2022-11-20T08:50:16;0.00;99.90
24802;DHT22;12898;50.520;12.152;2022-11-20T08:52:42;0.00;99.90
24802;DHT22;12898;50.520;12.152;2022-11-20T08:55:08;0.00;99.90
24802;DHT22;12898;50.520;12.152;2022-11-20T08:57:35;0.00;99.90
24802;DHT22;12898;50.520;12.152;2022-11-20T09:00:03;0.10;99.90
24802;DHT22;12898;50.520;12.152;2022-11-20T09:02:29;0.10;99.90
24802;DHT22;12898;50.520;12.152;2022-11-20T09:04:56;0.20;99.90
24802;DHT22;12898;50.520;12.152;2022-11-20T09:07:21;0.20;99.90
24802;DHT22;12898;50.520;12.152;2022-11-20T09:09:47;0.20;99.90
24802;DHT22;12898;50.520;12.152;2022-11-20T09:12:13;0.30;99.90
24802;DHT22;12898;50.520;12.152;2022-11-20T09:14:39;0.30;99.90
24802;DHT22;12898;50.520;12.152;2022-11-20T09:17:04;0.30;99.90
24802;DHT22;12898;50.520;12.152;2022-11-20T09:19:30;0.40;99.90
24802;DHT22;12898;50.520;12.152;2022-11-20T09:21:56;0.50;99.90
24802;DHT22;12898;50.520;12.152;2022-11-20T09:24:23;0.50;99.90
24802;DHT22;12898;50.520;12.152;2022-11-20T09:26:49;0.60;99.90
24802;DHT22;12898;50.520;12.152;2022-11-20T09:29:14;0.60;99.90
24802;DHT22;12898;50.520;12.152;2022-11-20T09:31:40;0.70;99.90
24802;DHT22;12898;50.520;12.152;2022-11-20T09:34:05;0.80;99.90
24802;DHT22;12898;50.520;12.152;2022-11-20T09:36:31;0.80;99.90
24802;DHT22;12898;50.520;12.152;2022-11-20T09:38:57;0.90;99.90
24802;DHT22;12898;50.520;12.152;2022-11-20T09:47:55;1.00;99.90
24802;DHT22;12898;50.520;12.152;2022-11-20T09:51:00;1.00;99.90
24802;DHT22;12898;50.520;12.152;2022-11-20T09:56:42;1.00;99.90
24802;DHT22;12898;50.520;12.152;2022-11-20T09:59:39;0.90;99.90
24802;DHT22;12898;50.520;12.152;2022-11-20T10:04:47;0.90;99.90
24802;DHT22;12898;50.520;12.152;2022-11-20T10:07:33;0.90;99.90
24802;DHT22;12898;50.520;12.152;2022-11-20T10:10:03;0.90;99.90
24802;DHT22;12898;50.520;12.152;2022-11-20T10:12:55;1.00;99.90
24802;DHT22;12898;50.520;12.152;2022-11-20T10:24:44;1.00;99.90
24802;DHT22;12898;50.520;12.152;2022-11-20T10:32:45;1.30;99.90
24802;DHT22;12898;50.520;12.152;2022-11-20T10:35:23;1.40;99.90
24802;DHT22;12898;50.520;12.152;2022-11-20T10:38:07;1.40;99.90
24802;DHT22;12898;50.520;12.152;2022-11-20T10:40:44;1.70;99.90
24802;DHT22;12898;50.520;12.152;2022-11-20T10:43:44;1.90;99.90
24802;DHT22;12898;50.520;12.152;2022-11-20T10:46:19;2.30;99.90
24802;DHT22;12898;50.520;12.152;2022-11-20T10:48:48;2.40;99.90
24802;DHT22;12898;50.520;12.152;2022-11-20T10:54:19;2.30;99.90
24802;DHT22;12898;50.520;12.152;2022-11-20T10:56:56;2.10;99.90
24802;DHT22;12898;50.520;12.152;2022-11-20T11:00:02;2.10;99.90
24802;DHT22;12898;50.520;12.152;2022-11-20T11:02:38;2.00;99.90
24802;DHT22;12898;50.520;12.152;2022-11-20T11:05:38;1.90;99.90
24802;DHT22;12898;50.520;12.152;2022-11-20T11:08:12;1.70;99.90
24802;DHT22;12898;50.520;12.152;2022-11-20T11:10:51;1.60;99.90
24802;DHT22;12898;50.520;12.152;2022-11-20T11:13:23;1.60;99.90
24802;DHT22;12898;50.520;12.152;2022-11-20T11:15:50;1.60;99.90
24802;DHT22;12898;50.520;12.152;2022-11-20T11:18:33;1.70;99.90
24802;DHT22;12898;50.520;12.152;2022-11-20T11:21:01;1.70;99.90
24802;DHT22;12898;50.520;12.152;2022-11-20T11:23:57;1.70;99.90
24802;DHT22;12898;50.520;12.152;2022-11-20T11:26:28;1.60;99.90
24802;DHT22;12898;50.520;12.152;2022-11-20T11:31:28;1.60;99.90
24802;DHT22;12898;50.520;12.152;2022-11-20T11:34:27;1.60;99.90
24802;DHT22;12898;50.520;12.152;2022-11-20T11:36:59;1.60;99.90
24802;DHT22;12898;50.520;12.152;2022-11-20T11:39:27;1.60;99.90
24802;DHT22;12898;50.520;12.152;2022-11-20T11:41:54;1.60;99.90
24802;DHT22;12898;50.520;12.152;2022-11-20T11:44:22;1.60;99.90
24802;DHT22;12898;50.520;12.152;2022-11-20T11:47:23;1.60;99.90
24802;DHT22;12898;50.520;12.152;2022-11-20T11:55:44;1.70;99.90
24802;DHT22;12898;50.520;12.152;2022-11-20T11:58:48;1.70;99.90
24802;DHT22;12898;50.520;12.152;2022-11-20T12:04:40;1.70;99.90
24802;DHT22;12898;50.520;12.152;2022-11-20T12:10:23;1.70;99.90
24802;DHT22;12898;50.520;12.152;2022-11-20T12:13:02;1.80;99.90
24802;DHT22;12898;50.520;12.152;2022-11-20T12:15:47;1.80;99.90
24802;DHT22;12898;50.520;12.152;2022-11-20T12:18:18;1.80;99.90
24802;DHT22;12898;50.520;12.152;2022-11-20T12:21:03;1.80;99.90
24802;DHT22;12898;50.520;12.152;2022-11-20T12:23:40;1.80;99.90
24802;DHT22;12898;50.520;12.152;2022-11-20T12:26:49;1.80;99.90
24802;DHT22;12898;50.520;12.152;2022-11-20T12:44:52;2.20;99.90
24802;DHT22;12898;50.520;12.152;2022-11-20T12:56:30;3.50;99.90
24802;DHT22;12898;50.520;12.152;2022-11-20T13:05:29;3.10;99.90
24802;DHT22;12898;50.520;12.152;2022-11-20T13:08:00;2.80;99.90
24802;DHT22;12898;50.520;12.152;2022-11-20T13:10:47;2.70;99.90
24802;DHT22;12898;50.520;12.152;2022-11-20T13:19:18;2.30;99.90
24802;DHT22;12898;50.520;12.152;2022-11-20T13:21:49;2.30;99.90
24802;DHT22;12898;50.520;12.152;2022-11-20T13:24:23;2.20;99.90
24802;DHT22;12898;50.520;12.152;2022-11-20T13:29:44;2.00;99.90
24802;DHT22;12898;50.520;12.152;2022-11-20T13:34:39;1.90;99.90
24802;DHT22;12898;50.520;12.152;2022-11-20T13:37:05;1.90;99.90
24802;DHT22;12898;50.520;12.152;2022-11-20T13:39:33;1.90;99.90
24802;DHT22;12898;50.520;12.152;2022-11-20T13:44:52;2.00;99.90
24802;DHT22;12898;50.520;12.152;2022-11-20T13:47:24;2.00;99.90
24802;DHT22;12898;50.520;12.152;2022-11-20T13:49:54;2.10;99.90
24802;DHT22;12898;50.520;12.152;2022-11-20T14:01:20;2.00;99.90
24802;DHT22;12898;50.520;12.152;2022-11-20T14:03:47;2.00;99.90
24802;DHT22;12898;50.520;12.152;2022-11-20T14:06:34;2.00;99.90
24802;DHT22;12898;50.520;12.152;2022-11-20T14:09:24;2.00;99.90
24802;DHT22;12898;50.520;12.152;2022-11-20T14:11:52;2.00;99.90
24802;DHT22;12898;50.520;12.152;2022-11-20T14:14:20;2.00;99.90
24802;DHT22;12898;50.520;12.152;2022-11-20T14:16:50;1.90;99.90
24802;DHT22;12898;50.520;12.152;2022-11-20T14:19:27;1.90;99.90
24802;DHT22;12898;50.520;12.152;2022-11-20T14:27:39;1.90;99.90
24802;DHT22;12898;50.520;12.152;2022-11-20T14:30:13;1.80;99.90
24802;DHT22;12898;50.520;12.152;2022-11-20T14:32:45;1.80;99.90
24802;DHT22;12898;50.520;12.152;2022-11-20T14:35:25;1.80;99.90
24802;DHT22;12898;50.520;12.152;2022-11-20T14:38:01;1.80;99.90
24802;DHT22;12898;50.520;12.152;2022-11-20T14:40:35;1.80;99.90
24802;DHT22;12898;50.520;12.152;2022-11-20T14:43:02;1.70;99.90
24802;DHT22;12898;50.520;12.152;2022-11-20T14:45:43;1.70;99.90
24802;DHT22;12898;50.520;12.152;2022-11-20T14:48:10;1.70;99.90
24802;DHT22;12898;50.520;12.152;2022-11-20T14:50:38;1.70;99.90
24802;DHT22;12898;50.520;12.152;2022-11-20T14:53:04;1.60;99.90
24802;DHT22;12898;50.520;12.152;2022-11-20T14:55:35;1.60;99.90
24802;DHT22;12898;50.520;12.152;2022-11-20T14:58:24;1.60;99.90
24802;DHT22;12898;50.520;12.152;2022-11-20T15:01:00;1.50;99.90
24802;DHT22;12898;50.520;12.152;2022-11-20T15:03:37;1.50;99.90
24802;DHT22;12898;50.520;12.152;2022-11-20T15:06:05;1.50;99.90
24802;DHT22;12898;50.520;12.152;2022-11-20T15:08:32;1.50;99.90
24802;DHT22;12898;50.520;12.152;2022-11-20T15:10:59;1.40;99.90
24802;DHT22;12898;50.520;12.152;2022-11-20T15:13:36;1.40;99.90
24802;DHT22;12898;50.520;12.152;2022-11-20T15:16:12;1.40;99.90
24802;DHT22;12898;50.520;12.152;2022-11-20T15:18:43;1.30;99.90
24802;DHT22;12898;50.520;12.152;2022-11-20T15:21:17;1.30;99.90
24802;DHT22;12898;50.520;12.152;2022-11-20T15:23:47;1.30;99.90
24802;DHT22;12898;50.520;12.152;2022-11-20T15:26:18;1.30;99.90
24802;DHT22;12898;50.520;12.152;2022-11-20T15:28:48;1.20;99.90
24802;DHT22;12898;50.520;12.152;2022-11-20T15:31:22;1.20;99.90
24802;DHT22;12898;50.520;12.152;2022-11-20T15:33:49;1.20;99.90
24802;DHT22;12898;50.520;12.152;2022-11-20T15:36:15;1.20;99.90
24802;DHT22;12898;50.520;12.152;2022-11-20T15:38:41;1.20;99.90
24802;DHT22;12898;50.520;12.152;2022-11-20T15:41:07;1.10;99.90
24802;DHT22;12898;50.520;12.152;2022-11-20T15:43:33;1.10;99.90
24802;DHT22;12898;50.520;12.152;2022-11-20T15:46:05;1.10;99.90
24802;DHT22;12898;50.520;12.152;2022-11-20T15:48:44;1.10;99.90
24802;DHT22;12898;50.520;12.152;2022-11-20T15:53:37;1.10;99.90
24802;DHT22;12898;50.520;12.152;2022-11-20T15:56:03;1.00;99.90
24802;DHT22;12898;50.520;12.152;2022-11-20T15:58:29;1.00;99.90
24802;DHT22;12898;50.520;12.152;2022-11-20T16:00:55;1.00;99.90
24802;DHT22;12898;50.520;12.152;2022-11-20T16:03:22;0.90;99.90
24802;DHT22;12898;50.520;12.152;2022-11-20T16:05:48;0.90;99.90
24802;DHT22;12898;50.520;12.152;2022-11-20T16:08:13;0.90;99.90
24802;DHT22;12898;50.520;12.152;2022-11-20T16:10:40;0.80;99.90
24802;DHT22;12898;50.520;12.152;2022-11-20T16:13:21;0.80;99.90
24802;DHT22;12898;50.520;12.152;2022-11-20T16:16:28;0.80;99.90
24802;DHT22;12898;50.520;12.152;2022-11-20T16:18:56;0.70;99.90
24802;DHT22;12898;50.520;12.152;2022-11-20T16:21:22;0.70;99.90
24802;DHT22;12898;50.520;12.152;2022-11-20T16:23:57;0.60;99.90
24802;DHT22;12898;50.520;12.152;2022-11-20T16:26:31;0.40;99.90
24802;DHT22;12898;50.520;12.152;2022-11-20T16:29:02;0.30;99.90
24802;DHT22;12898;50.520;12.152;2022-11-20T16:31:28;0.30;99.90
24802;DHT22;12898;50.520;12.152;2022-11-20T16:33:56;0.30;99.90
24802;DHT22;12898;50.520;12.152;2022-11-20T16:36:24;0.20;99.90
24802;DHT22;12898;50.520;12.152;2022-11-20T16:38:55;0.10;99.90
24802;DHT22;12898;50.520;12.152;2022-11-20T16:41:24;0.00;99.90
24802;DHT22;12898;50.520;12.152;2022-11-20T16:44:11;-0.10;99.90
24802;DHT22;12898;50.520;12.152;2022-11-20T16:46:39;-0.20;99.90
24802;DHT22;12898;50.520;12.152;2022-11-20T16:49:11;-0.30;99.90
24802;DHT22;12898;50.520;12.152;2022-11-20T16:51:41;-0.30;99.90
24802;DHT22;12898;50.520;12.152;2022-11-20T16:54:09;-0.30;99.90
24802;DHT22;12898;50.520;12.152;2022-11-20T16:56:36;-0.30;99.90
24802;DHT22;12898;50.520;12.152;2022-11-20T16:59:03;-0.20;99.90
24802;DHT22;12898;50.520;12.152;2022-11-20T17:01:29;-0.20;99.90
24802;DHT22;12898;50.520;12.152;2022-11-20T17:03:59;-0.10;99.90
24802;DHT22;12898;50.520;12.152;2022-11-20T17:06:35;0.00;99.90
24802;DHT22;12898;50.520;12.152;2022-11-20T17:09:03;0.00;99.90
24802;DHT22;12898;50.520;12.152;2022-11-20T17:11:29;0.10;99.90
24802;DHT22;12898;50.520;12.152;2022-11-20T17:13:56;0.20;99.90
24802;DHT22;12898;50.520;12.152;2022-11-20T17:16:25;0.20;99.90
24802;DHT22;12898;50.520;12.152;2022-11-20T17:18:53;0.30;99.90
24802;DHT22;12898;50.520;12.152;2022-11-20T17:21:20;0.30;99.90
24802;DHT22;12898;50.520;12.152;2022-11-20T17:23:46;0.40;99.90
24802;DHT22;12898;50.520;12.152;2022-11-20T17:26:16;0.40;99.90
24802;DHT22;12898;50.520;12.152;2022-11-20T17:28:44;0.50;99.90
24802;DHT22;12898;50.520;12.152;2022-11-20T17:31:13;0.50;99.90
24802;DHT22;12898;50.520;12.152;2022-11-20T17:33:42;0.50;99.90
24802;DHT22;12898;50.520;12.152;2022-11-20T17:36:10;0.50;99.90